CYBG

UTC

CFB Bagotville

Saguenay, Quebec, Canada

METAR - Current

CYBG 042300Z 09007KT 20SM FEW140 17/01 A3009 RMK AC1 DENSITY ALT 825FT SLP194

Observed

Jun 04 23:00 UTC

Flight Rules

VFR

Wind

090° at 7 KTS

Visibility

20 SM

Clouds

  • Few at 14,000 ft AGL

Temperature

17°C=63°F

Dew Point

1°C=34°F

Humidity

34%

Altimeter

30.09 Hg

Pressure

1019.0 hPa

METAR - Previous

CYBG 042222Z 09007KT 20SM FEW140 19/M00 A3008 RMK AC1 DENSITY ALT 995FT SLP192

Observed

Jun 04 22:22 UTC

Flight Rules

VFR

Wind

090° at 7 KTS

Visibility

20 SM

Clouds

  • Few at 14,000 ft AGL

Temperature

19°C=66°F

Dew Point

0°C=32°F

Humidity

28%

Altimeter

30.08 Hg

Pressure

1019.0 hPa